Time;durP1;ratioP1;P1;durP2;ratioP2;P2;SDS_P1;SDS_P2;PMS_P1;PMS_P2;Temp;Humidity;BMP_temperature;BMP_pressure;BME280_temperature;BME280_humidity;BME280_pressure;Samples;Min_cycle;Max_cycle;Signal;HPM_P1;HPM_P2
2022/06/21 00:00:15;;;;;;;13.95;4.82;;;;;;;20.29;61.00;100071.38;4975468;28;20031;-84
2022/06/21 00:02:41;;;;;;;11.75;4.13;;;;;;;20.33;61.03;100067.22;4975565;28;20030;-84
2022/06/21 00:05:23;;;;;;;8.85;4.65;;;;;;;20.37;60.95;100079.41;4974730;28;20027;-84
2022/06/21 00:07:49;;;;;;;5.90;4.10;;;;;;;20.37;60.58;100068.47;4974756;28;20109;-84
2022/06/21 00:10:18;;;;;;;4.85;3.45;;;;;;;20.33;59.85;100069.09;4974964;28;20105;-84
2022/06/21 00:12:44;;;;;;;4.95;4.30;;;;;;;20.35;60.25;100076.03;4974797;28;20019;-84
2022/06/21 00:15:10;;;;;;;8.15;5.50;;;;;;;20.39;61.45;100076.47;4976492;28;20054;-84
2022/06/21 00:17:38;;;;;;;11.23;5.88;;;;;;;20.38;62.93;100078.34;4978908;28;20033;-84
2022/06/21 00:20:04;;;;;;;10.30;5.55;;;;;;;20.34;63.84;100068.88;4978628;28;20029;-84
2022/06/21 00:22:30;;;;;;;13.93;6.70;;;;;;;20.36;64.32;100077.72;4977967;28;20023;-84
2022/06/21 00:24:55;;;;;;;9.45;5.47;;;;;;;20.29;64.29;100068.63;4978080;28;20110;-84
2022/06/21 00:27:21;;;;;;;12.93;5.78;;;;;;;20.36;64.25;100075.00;4960566;28;20440;-84
2022/06/21 00:29:47;;;;;;;9.55;5.30;;;;;;;20.26;63.78;100058.13;4978687;28;20492;-84
2022/06/21 00:32:15;;;;;;;13.48;5.15;;;;;;;20.29;63.67;100071.38;4977600;28;20022;-83
2022/06/21 00:34:42;;;;;;;10.25;5.57;;;;;;;20.25;63.89;100059.13;4977709;28;20027;-84
2022/06/21 00:37:22;;;;;;;12.77;5.80;;;;;;;20.21;64.29;100060.59;4976986;28;20484;-84
2022/06/21 00:39:49;;;;;;;23.58;6.35;;;;;;;20.14;64.60;100054.22;4977841;28;20081;-83
2022/06/21 00:42:32;;;;;;;17.55;5.68;;;;;;;20.00;65.08;100049.72;4960660;28;20030;-83
2022/06/21 00:45:26;;;;;;;12.15;5.55;;;;;;;19.85;65.97;100057.16;4977725;28;20053;-83
2022/06/21 00:47:56;;;;;;;10.18;6.78;;;;;;;19.75;66.24;100062.13;4965316;28;20050;-83
2022/06/21 00:50:34;;;;;;;13.70;6.28;;;;;;;19.75;66.50;100059.41;4977895;28;20019;-83
2022/06/21 00:53:07;;;;;;;17.38;6.00;;;;;;;19.77;66.45;100051.84;4977307;28;20019;-83
2022/06/21 00:55:56;;;;;;;11.73;4.93;;;;;;;19.76;66.18;100058.34;4977729;28;20023;-83
2022/06/21 00:58:25;;;;;;;12.73;6.10;;;;;;;19.70;66.39;100064.59;4977507;28;20398;-84
2022/06/21 01:00:57;;;;;;;10.40;5.25;;;;;;;19.71;66.51;100049.91;4959478;28;20019;-83
2022/06/21 01:03:30;;;;;;;18.08;6.45;;;;;;;19.74;66.13;100049.53;4976694;28;20030;-84
2022/06/21 01:06:00;;;;;;;9.75;5.50;;;;;;;19.68;65.61;100051.16;4977063;28;20496;-84
2022/06/21 01:08:32;;;;;;;11.98;5.82;;;;;;;19.70;65.28;100049.06;4977115;28;20030;-85
2022/06/21 01:11:01;;;;;;;;;;;;;;;19.75;65.50;100056.69;4977693;28;20476;-84
2022/06/21 01:13:29;;;;;;;17.80;7.07;;;;;;;19.66;65.75;100053.25;4976540;28;19910;-85
2022/06/21 01:15:56;;;;;;;14.00;7.07;;;;;;;19.72;65.90;100062.53;4977091;28;20026;-86
2022/06/21 01:18:24;;;;;;;15.25;7.35;;;;;;;19.65;65.96;100045.25;4977197;28;20404;-85
2022/06/21 01:20:58;;;;;;;13.90;7.50;;;;;;;19.78;65.62;100062.59;4977624;28;20181;-84
2022/06/21 01:23:38;;;;;;;8.10;5.38;;;;;;;19.82;65.17;100060.28;4977244;28;20026;-84
2022/06/21 01:26:38;;;;;;;15.63;6.07;;;;;;;19.84;64.77;100052.75;4976962;28;20031;-85
2022/06/21 01:29:06;;;;;;;10.80;6.18;;;;;;;19.76;64.88;100041.97;4977313;28;20026;-86
2022/06/21 01:31:32;;;;;;;10.45;4.82;;;;;;;19.73;64.50;100058.75;4977862;28;20489;-88
2022/06/21 01:33:58;;;;;;;16.80;4.68;;;;;;;19.65;63.46;100047.97;4977017;28;20030;-85
2022/06/21 01:36:31;;;;;;;10.93;4.05;;;;;;;19.61;62.11;100038.50;4976634;28;20027;-85
2022/06/21 01:39:05;;;;;;;8.35;4.10;;;;;;;19.59;61.29;100035.13;4976674;28;20034;-84
2022/06/21 01:41:35;;;;;;;6.65;2.92;;;;;;;19.61;60.57;100035.78;4977038;28;20034;-84
2022/06/21 01:44:07;;;;;;;13.43;3.30;;;;;;;19.64;60.12;100047.13;4976724;28;20025;-84
2022/06/21 01:46:33;;;;;;;7.30;3.17;;;;;;;19.63;59.98;100052.81;4976464;28;20089;-85
2022/06/21 01:49:06;;;;;;;10.38;2.88;;;;;;;19.60;59.72;100047.75;4975988;28;20031;-84
2022/06/21 01:51:40;;;;;;;6.88;2.72;;;;;;;19.57;59.82;100043.50;4976290;28;20026;-85
2022/06/21 01:54:09;;;;;;;8.57;3.38;;;;;;;19.53;59.88;100032.16;4976654;28;20478;-84
2022/06/21 01:56:39;;;;;;;6.07;3.92;;;;;;;19.57;60.13;100039.94;4958759;28;20046;-84
2022/06/21 01:59:15;;;;;;;11.55;4.10;;;;;;;19.56;60.20;100036.38;4975978;28;20030;-84
2022/06/21 02:01:53;;;;;;;5.93;3.67;;;;;;;19.54;60.73;100031.09;4975864;28;20027;-84
2022/06/21 02:04:22;;;;;;;6.55;2.90;;;;;;;19.42;61.22;100024.50;4975908;28;20030;-84
2022/06/21 02:06:50;;;;;;;6.47;3.20;;;;;;;19.45;60.98;100028.72;4976711;28;20030;-84
2022/06/21 02:09:29;;;;;;;9.77;4.10;;;;;;;19.30;61.54;100019.72;4975863;28;20035;-84
2022/06/21 02:12:00;;;;;;;5.97;3.45;;;;;;;19.49;61.55;100041.78;4958191;28;20069;-84
2022/06/21 02:14:29;;;;;;;23.30;7.57;;;;;;;19.59;63.08;100051.50;4958334;28;20034;-85
2022/06/21 02:17:11;;;;;;;14.63;8.05;;;;;;;19.54;64.28;100039.28;4972581;28;20049;-85
2022/06/21 02:19:43;;;;;;;15.10;8.05;;;;;;;19.50;65.88;100051.66;4976585;28;20033;-85
2022/06/21 02:22:24;;;;;;;21.85;9.27;;;;;;;19.43;67.47;100047.16;4975510;28;20045;-85
2022/06/21 02:24:51;;;;;;;32.45;10.75;;;;;;;19.28;68.20;100039.03;4975373;28;20104;-85
2022/06/21 02:27:19;;;;;;;16.73;10.07;;;;;;;19.21;68.45;100039.97;4975159;28;20113;-84
2022/06/21 02:29:50;;;;;;;15.98;10.15;;;;;;;19.24;68.59;100045.91;4976265;28;20029;-85
2022/06/21 02:32:33;;;;;;;23.08;10.13;;;;;;;19.22;68.76;100045.25;4975471;28;20030;-85
2022/06/21 02:35:19;;;;;;;20.73;8.80;;;;;;;19.22;68.37;100039.81;4975874;28;20503;-85
2022/06/21 02:37:47;;;;;;;13.30;9.25;;;;;;;19.26;68.33;100043.84;4948152;28;20043;-85
2022/06/21 02:40:20;;;;;;;27.33;8.82;;;;;;;19.26;68.16;100035.66;4975472;28;20039;-85
2022/06/21 02:42:48;;;;;;;20.02;9.23;;;;;;;19.26;68.11;100040.28;4975719;28;20046;-85
2022/06/21 02:45:20;;;;;;;15.65;8.48;;;;;;;19.32;67.64;100034.03;4975291;28;20520;-85
2022/06/21 02:47:51;;;;;;;19.10;8.88;;;;;;;19.41;67.52;100055.56;4975978;28;20085;-86
2022/06/21 02:50:26;;;;;;;16.67;8.80;;;;;;;19.37;67.68;100048.75;4976419;28;20033;-85
2022/06/21 02:52:55;;;;;;;13.90;7.50;;;;;;;19.37;67.21;100042.47;4976599;28;20027;-85
2022/06/21 02:55:21;;;;;;;16.10;8.85;;;;;;;19.32;67.29;100048.50;4976249;28;20058;-86
2022/06/21 02:57:59;;;;;;;15.98;8.18;;;;;;;19.27;67.22;100031.88;4975676;28;20034;-86
2022/06/21 03:00:26;;;;;;;27.73;9.20;;;;;;;19.44;66.93;100035.22;4976147;28;20106;-86
2022/06/21 03:02:52;;;;;;;21.38;8.60;;;;;;;19.46;66.56;100014.88;4975203;28;20031;-85
2022/06/21 03:05:21;;;;;;;24.05;9.20;;;;;;;19.61;66.10;100027.59;4975904;28;20027;-85
2022/06/21 03:07:57;;;;;;;16.35;7.88;;;;;;;19.69;65.65;100028.31;4975911;28;20081;-87
2022/06/21 03:10:33;;;;;;;11.70;7.22;;;;;;;19.72;65.51;100027.91;4976223;28;20070;-90
2022/06/21 03:13:07;;;;;;;16.10;7.93;;;;;;;19.74;65.69;100024.97;4959396;28;20058;-90
2022/06/21 03:15:34;;;;;;;21.25;8.93;;;;;;;19.74;65.86;100012.19;4977342;28;20042;-84
2022/06/21 03:18:11;;;;;;;30.65;11.60;;;;;;;19.73;66.08;100015.94;4973666;28;20484;-81
2022/06/21 03:20:38;;;;;;;18.77;9.50;;;;;;;19.73;66.45;100026.00;4974245;28;20084;-83
2022/06/21 03:23:05;;;;;;;34.20;10.40;;;;;;;19.71;66.70;100019.91;4974030;28;20093;-80
2022/06/21 03:25:44;;;;;;;14.50;7.40;;;;;;;19.78;66.03;100020.81;4973531;28;20026;-80
2022/06/21 03:28:45;;;;;;;15.70;7.35;;;;;;;19.82;65.82;100035.72;4957980;28;20031;-85
2022/06/21 03:31:16;;;;;;;23.25;8.52;;;;;;;19.81;65.52;100034.91;4960066;28;20050;-84
2022/06/21 03:33:45;;;;;;;28.77;9.90;;;;;;;19.82;66.35;100035.72;4973558;28;20535;-81
2022/06/21 03:36:19;;;;;;;22.40;9.70;;;;;;;19.86;66.63;100037.88;4974413;28;20551;-85
2022/06/21 03:38:48;;;;;;;21.20;8.63;;;;;;;19.78;66.39;100037.19;4975534;28;20455;-83
2022/06/21 03:44:31;;;;;;;29.13;11.10;;;;;;;19.65;67.75;100028.88;4979196;28;20117;-89
2022/06/21 03:47:24;;;;;;;28.13;11.02;;;;;;;19.62;67.94;100023.81;4977027;28;20047;-87
2022/06/21 03:50:00;;;;;;;28.10;12.07;;;;;;;19.47;68.81;100022.03;4982536;28;20039;-88
2022/06/21 03:52:47;;;;;;;22.92;10.90;;;;;;;19.53;68.94;100021.25;4980755;28;20079;-89
2022/06/21 03:55:25;;;;;;;56.20;14.30;;;;;;;19.64;68.36;100019.00;4962715;28;20026;-87
2022/06/21 03:58:11;;;;;;;42.30;15.23;;;;;;;19.67;69.01;100021.34;4980543;28;20093;-92
2022/06/21 04:00:46;;;;;;;27.42;16.60;;;;;;;19.79;69.34;100033.41;4979948;28;20027;-82
2022/06/21 04:03:55;;;;;;;39.55;16.33;;;;;;;19.87;69.12;100022.34;4959516;28;20357;-81
2022/06/21 04:06:46;;;;;;;38.92;16.88;;;;;;;19.89;69.07;100012.06;4951101;29;20039;-84
2022/06/21 04:09:42;;;;;;;43.20;15.55;;;;;;;19.90;68.97;100016.50;4958070;29;20452;-85
2022/06/21 04:26:04;;;;;;;26.73;13.50;;;;;;;19.97;69.25;100020.09;4956791;29;20046;-80
2022/06/21 04:28:45;;;;;;;38.92;14.60;;;;;;;20.06;69.22;100016.16;4971065;28;20019;-80
2022/06/21 04:31:28;;;;;;;28.30;13.35;;;;;;;20.12;69.48;100023.53;4973683;28;20051;-80
2022/06/21 04:33:59;;;;;;;;;;;;;;;20.21;69.27;100008.72;4975479;28;20018;-79
2022/06/21 04:36:32;;;;;;;41.35;14.07;;;;;;;20.32;69.32;99997.22;4958234;28;19925;-77
2022/06/21 04:39:08;;;;;;;42.72;15.63;;;;;;;20.45;69.38;100010.97;5150675;23;20439;-81
2022/06/21 04:41:43;;;;;;;62.33;14.55;;;;;;;20.52;69.30;100000.88;4994444;28;20181;-78
2022/06/21 04:44:23;;;;;;;37.90;12.63;;;;;;;20.67;69.08;99997.16;4994510;28;20467;-77
2022/06/21 04:47:22;;;;;;;30.00;11.48;;;;;;;20.83;68.90;99996.78;4994652;28;20528;-79
2022/06/21 04:49:55;;;;;;;19.63;9.48;;;;;;;21.00;67.67;99993.47;4995220;28;20088;-77
2022/06/21 04:52:27;;;;;;;;;;;;;;;21.14;67.34;99999.81;4994918;28;20025;-76
2022/06/21 04:54:53;;;;;;;24.63;9.25;;;;;;;21.30;67.28;99996.69;4994254;28;19914;-76
2022/06/21 04:57:24;;;;;;;21.35;9.60;;;;;;;21.45;66.29;99991.84;4994421;28;20030;-76
2022/06/21 05:00:14;;;;;;;16.50;9.13;;;;;;;21.64;65.54;99991.00;4976900;28;20042;-76
2022/06/21 05:02:47;;;;;;;20.85;9.50;;;;;;;21.79;64.89;99981.72;4993215;28;20030;-76
2022/06/21 05:05:20;;;;;;;23.95;9.45;;;;;;;21.94;64.32;99982.34;4994384;28;20057;-76
2022/06/21 05:07:57;;;;;;;18.35;10.70;;;;;;;22.05;64.04;99981.69;4994278;28;20085;-77
2022/06/21 05:10:27;;;;;;;21.02;9.88;;;;;;;22.17;63.70;99979.97;4994256;28;20034;-76
2022/06/21 05:12:57;;;;;;;15.13;9.70;;;;;;;22.23;63.52;99971.72;4994229;28;20033;-75
2022/06/21 05:15:26;;;;;;;28.40;12.43;;;;;;;22.35;62.93;99974.66;4994006;28;20030;-76
2022/06/21 05:18:05;;;;;;;18.40;9.07;;;;;;;22.42;62.53;99964.50;4993775;28;20062;-75
2022/06/21 05:20:35;;;;;;;24.60;11.65;;;;;;;22.49;62.20;99962.56;4993693;28;20407;-76
2022/06/21 05:23:04;;;;;;;37.45;9.70;;;;;;;22.54;62.05;99970.97;4993725;28;20448;-76
2022/06/21 05:25:40;;;;;;;19.50;10.65;;;;;;;22.65;61.41;99978.56;4993627;28;20113;-76
2022/06/21 05:28:15;;;;;;;15.50;7.97;;;;;;;22.68;61.29;99966.31;4994053;28;20034;-77
2022/06/21 05:30:51;;;;;;;21.17;8.63;;;;;;;22.71;61.74;99977.69;4993780;28;20506;-77
2022/06/21 05:33:24;;;;;;;20.52;8.40;;;;;;;22.75;61.00;99972.59;4993372;28;20022;-76
2022/06/21 05:35:50;;;;;;;14.13;6.93;;;;;;;22.78;60.95;99961.19;4993614;28;20407;-77
2022/06/21 05:38:24;;;;;;;25.88;8.48;;;;;;;22.89;60.41;99959.63;4993353;28;20112;-75
2022/06/21 05:40:58;;;;;;;23.80;8.40;;;;;;;22.98;60.73;99961.91;4993566;28;20088;-75
2022/06/21 05:43:35;;;;;;;26.48;7.75;;;;;;;23.04;60.39;99960.16;4993417;28;20058;-77
2022/06/21 05:46:04;;;;;;;28.02;8.13;;;;;;;23.13;60.48;99948.72;4993234;28;20476;-75
2022/06/21 05:48:36;;;;;;;26.42;7.43;;;;;;;23.20;60.20;99943.19;4993277;28;20483;-78
2022/06/21 05:51:06;;;;;;;22.17;7.22;;;;;;;23.36;59.53;99937.13;4992708;28;20043;-76
2022/06/21 05:53:43;;;;;;;14.70;6.45;;;;;;;23.42;58.84;99936.28;4993332;28;20063;-75
2022/06/21 05:56:16;;;;;;;10.05;5.68;;;;;;;23.52;58.20;99925.59;4993432;28;20503;-76
2022/06/21 05:58:50;;;;;;;15.18;6.53;;;;;;;23.64;58.00;99929.28;4992934;28;20036;-75
2022/06/21 06:01:42;;;;;;;25.33;6.30;;;;;;;23.74;57.98;99929.63;4993005;28;20126;-75
2022/06/21 06:04:11;;;;;;;20.70;6.35;;;;;;;23.83;57.48;99933.75;4993148;28;20045;-76
2022/06/21 06:06:40;;;;;;;24.05;7.20;;;;;;;23.84;58.11;99929.09;4992704;28;20133;-76
2022/06/21 06:09:19;;;;;;;27.33;6.97;;;;;;;24.01;57.82;99935.66;4992857;28;20053;-76
2022/06/21 06:12:22;;;;;;;16.75;7.07;;;;;;;24.07;56.66;99933.88;4992799;28;20056;-74
2022/06/21 06:14:54;;;;;;;13.48;4.78;;;;;;;24.20;56.09;99933.78;4993230;28;20478;-74
2022/06/21 06:17:39;;;;;;;19.30;5.72;;;;;;;24.28;55.53;99919.72;4993116;28;20034;-74
2022/06/21 06:20:13;;;;;;;14.48;4.57;;;;;;;24.34;54.72;99921.56;4992473;28;20034;-74
2022/06/21 06:22:45;;;;;;;24.35;5.80;;;;;;;24.33;54.73;99917.13;4992751;28;20030;-77
2022/06/21 06:25:27;;;;;;;10.27;4.68;;;;;;;24.43;54.79;99928.41;4993004;28;20093;-77
2022/06/21 06:28:35;;;;;;;15.50;4.50;;;;;;;24.64;54.58;99919.66;4992630;28;20487;-77
2022/06/21 06:31:14;;;;;;;17.17;4.43;;;;;;;24.69;54.45;99921.69;4974088;28;20415;-77
2022/06/21 06:33:55;;;;;;;18.40;4.65;;;;;;;24.75;53.72;99921.59;4992644;28;20050;-76
2022/06/21 06:36:29;;;;;;;9.48;4.25;;;;;;;24.80;53.54;99924.47;4992669;28;20034;-77
2022/06/21 06:38:58;;;;;;;16.80;7.28;;;;;;;24.87;53.13;99916.16;4992099;28;20054;-77
2022/06/21 06:41:31;;;;;;;20.17;6.55;;;;;;;24.89;52.45;99917.59;4991435;28;20427;-76
2022/06/21 06:44:01;;;;;;;11.55;5.32;;;;;;;24.92;53.02;99906.13;4991242;28;20026;-76
2022/06/21 06:46:33;;;;;;;18.73;5.50;;;;;;;25.02;52.92;99915.72;4991738;28;20483;-76
2022/06/21 06:49:13;;;;;;;17.77;4.33;;;;;;;25.04;52.14;99919.94;4991518;28;20415;-76
2022/06/21 06:51:49;;;;;;;19.63;5.18;;;;;;;25.05;52.01;99920.75;4991434;28;20030;-76
2022/06/21 06:54:30;;;;;;;19.20;5.10;;;;;;;25.09;51.83;99911.81;4991528;28;20022;-75
2022/06/21 06:57:16;;;;;;;28.05;5.13;;;;;;;25.12;52.16;99916.00;4992196;28;20026;-76
2022/06/21 06:59:43;;;;;;;17.45;4.53;;;;;;;25.20;51.95;99919.22;4992418;28;20026;-76
2022/06/21 07:02:21;;;;;;;30.15;6.22;;;;;;;25.25;52.11;99918.53;4992162;28;20069;-76
2022/06/21 07:04:56;;;;;;;25.38;5.97;;;;;;;25.30;52.11;99914.00;4992085;28;20046;-76
2022/06/21 07:07:28;;;;;;;18.17;4.78;;;;;;;25.37;52.37;99908.38;4992175;28;20033;-76
2022/06/21 07:09:58;;;;;;;26.53;5.63;;;;;;;25.41;52.42;99907.66;4992186;28;20057;-76
2022/06/21 07:12:27;;;;;;;17.15;5.22;;;;;;;25.57;52.07;99906.13;4992581;28;20108;-75
2022/06/21 07:14:54;;;;;;;41.20;7.35;;;;;;;25.64;51.77;99912.38;4992315;28;20121;-76
2022/06/21 07:17:26;;;;;;;44.90;6.72;;;;;;;25.71;51.81;99910.34;4992357;28;20041;-76
2022/06/21 07:19:53;;;;;;;19.80;5.97;;;;;;;25.79;52.11;99912.72;4992268;28;20034;-76
2022/06/21 07:22:24;;;;;;;27.13;6.03;;;;;;;25.91;52.17;99910.78;4992007;28;20038;-76
2022/06/21 07:25:18;;;;;;;26.88;6.75;;;;;;;26.03;52.62;99927.28;4993882;28;20030;-76
2022/06/21 07:27:48;;;;;;;32.75;7.10;;;;;;;26.12;52.45;99922.22;4996449;28;20041;-76
2022/06/21 07:30:16;;;;;;;53.88;8.95;;;;;;;26.16;52.00;99921.56;4996095;28;20053;-76
2022/06/21 07:32:49;;;;;;;27.45;6.90;;;;;;;26.26;52.71;99923.69;4995822;28;20101;-75
2022/06/21 07:35:24;;;;;;;55.70;11.43;;;;;;;26.39;51.91;99917.91;4996065;28;20034;-75
2022/06/21 07:38:00;;;;;;;14.32;6.72;;;;;;;26.47;51.76;99914.75;4994705;28;20045;-74
2022/06/21 07:40:26;;;;;;;21.67;4.15;;;;;;;26.49;50.59;99918.09;4996087;28;20110;-75
2022/06/21 07:43:32;;;;;;;20.50;5.25;;;;;;;26.55;50.25;99922.63;4995927;28;20109;-75
2022/06/21 07:46:00;;;;;;;26.13;6.50;;;;;;;26.56;50.20;99926.22;4952756;28;20050;-75
2022/06/21 07:49:10;;;;;;;49.70;6.75;;;;;;;26.66;50.03;99924.50;4995921;28;20019;-75
2022/06/21 07:51:42;;;;;;;23.38;6.07;;;;;;;26.76;51.14;99919.16;4952453;28;20057;-75
2022/06/21 07:54:19;;;;;;;34.78;7.68;;;;;;;26.84;50.17;99912.44;4995755;28;20026;-75
2022/06/21 07:56:52;;;;;;;16.08;4.80;;;;;;;26.86;50.41;99922.16;4995658;28;20034;-75
2022/06/21 07:59:31;;;;;;;37.50;8.00;;;;;;;26.94;49.80;99918.16;4995639;28;20034;-75
2022/06/21 08:08:42;;;;;;;13.23;5.18;;;;;;;27.14;48.09;99915.75;4976288;28;20045;-75
2022/06/21 08:11:28;;;;;;;15.75;4.32;;;;;;;27.26;48.73;99912.91;4970060;28;20452;-76
2022/06/21 08:13:53;;;;;;;11.30;4.30;;;;;;;27.24;49.07;99909.56;4976050;28;20022;-76
2022/06/21 08:16:22;;;;;;;14.00;4.70;;;;;;;27.29;48.53;99918.78;4976125;28;20405;-75
2022/06/21 08:18:53;;;;;;;13.15;4.63;;;;;;;27.33;49.90;99919.13;4975866;28;20022;-77
2022/06/21 08:21:31;;;;;;;13.10;4.83;;;;;;;27.22;51.11;99907.03;4958598;28;20441;-75
2022/06/21 08:24:33;;;;;;;14.68;4.40;;;;;;;27.33;51.07;99908.06;4975893;28;20472;-75
2022/06/21 08:27:05;;;;;;;12.57;3.97;;;;;;;27.28;53.52;99921.75;4976133;28;20053;-75
2022/06/21 08:29:42;;;;;;;12.85;4.45;;;;;;;27.25;54.28;99911.22;4976184;28;20027;-75
2022/06/21 08:32:20;;;;;;;8.15;3.72;;;;;;;27.34;54.16;99920.75;4976072;28;20031;-75
2022/06/21 08:34:48;;;;;;;6.63;3.10;;;;;;;27.39;54.17;99912.59;4975794;28;20023;-76
2022/06/21 08:37:43;;;;;;;14.55;3.70;;;;;;;27.38;54.91;99910.91;4975751;28;20039;-76
2022/06/21 08:40:30;;;;;;;21.38;4.07;;;;;;;27.35;56.21;99897.59;4956599;28;20081;-76
2022/06/21 08:43:26;;;;;;;9.52;3.83;;;;;;;27.36;55.91;99913.09;4975257;28;20415;-76
2022/06/21 08:46:10;;;;;;;24.65;4.20;;;;;;;27.49;55.46;99907.25;4975435;28;20127;-77
2022/06/21 08:48:45;;;;;;;10.93;4.30;;;;;;;27.49;55.19;99901.72;4958081;28;20045;-75
2022/06/21 08:51:22;;;;;;;10.40;3.65;;;;;;;27.35;55.17;99911.41;4975488;28;20380;-76
2022/06/21 08:54:08;;;;;;;7.10;3.60;;;;;;;27.49;55.04;99904.50;4975296;28;20038;-75
2022/06/21 08:56:55;;;;;;;11.73;4.20;;;;;;;27.49;55.06;99898.97;4975479;28;20480;-76
2022/06/21 08:59:33;;;;;;;10.43;3.35;;;;;;;27.53;54.70;99897.34;4975168;28;20065;-77
2022/06/21 09:02:10;;;;;;;23.65;4.63;;;;;;;27.64;55.74;99903.88;4974999;28;20047;-75
2022/06/21 09:05:02;;;;;;;16.90;4.60;;;;;;;27.50;55.90;99884.06;4958479;28;20122;-77
2022/06/21 09:07:50;;;;;;;12.17;4.77;;;;;;;27.42;56.10;99901.03;4975057;28;20034;-76
2022/06/21 09:10:47;;;;;;;16.08;4.03;;;;;;;27.63;56.31;99896.69;4966795;28;20370;-76
2022/06/21 09:13:28;;;;;;;8.52;3.53;;;;;;;27.73;55.96;99894.91;4975194;28;20027;-76
2022/06/21 09:16:19;;;;;;;19.17;4.28;;;;;;;27.78;55.90;99889.44;4974954;28;20041;-75
2022/06/21 09:18:55;;;;;;;7.93;3.83;;;;;;;27.71;54.91;99888.78;4974895;28;20025;-76
2022/06/21 09:21:21;;;;;;;20.27;4.50;;;;;;;27.68;55.12;99896.75;4979521;28;20031;-79
2022/06/21 09:23:55;;;;;;;22.10;4.95;;;;;;;27.64;56.20;99899.19;4994059;28;20034;-79
2022/06/21 09:26:31;;;;;;;10.93;3.25;;;;;;;27.51;56.41;99896.78;5000406;28;20022;-77
2022/06/21 09:29:19;;;;;;;8.00;3.42;;;;;;;27.54;56.96;99893.50;5013167;28;20491;-78
2022/06/21 09:32:27;;;;;;;7.97;3.45;;;;;;;27.54;57.94;99897.13;5013176;28;20513;-76
2022/06/21 09:34:58;;;;;;;18.20;3.88;;;;;;;27.59;57.48;99899.09;4999316;28;20049;-75
2022/06/21 09:37:40;;;;;;;15.80;3.03;;;;;;;27.37;57.51;99893.50;5013323;28;20355;-76
2022/06/21 09:40:25;;;;;;;23.38;4.13;;;;;;;27.47;57.91;99901.13;4995515;28;20065;-75
2022/06/21 09:43:16;;;;;;;11.50;3.15;;;;;;;27.46;57.83;99894.75;5013108;28;20033;-77
2022/06/21 09:46:12;;;;;;;11.15;3.67;;;;;;;27.47;58.28;99898.38;5012496;28;20030;-79
2022/06/21 09:48:46;;;;;;;11.20;3.42;;;;;;;27.51;58.68;99891.25;5012119;28;20025;-77
2022/06/21 09:51:30;;;;;;;7.85;2.83;;;;;;;27.60;58.34;99888.91;4995296;28;20033;-76
2022/06/21 09:54:05;;;;;;;11.73;3.30;;;;;;;27.60;56.81;99898.03;5012909;28;20017;-75
2022/06/21 09:56:44;;;;;;;10.50;3.28;;;;;;;27.52;57.04;99902.03;5012585;28;20356;-75
2022/06/21 09:59:34;;;;;;;9.15;3.03;;;;;;;27.61;56.74;99890.56;5012988;28;20463;-76
2022/06/21 10:02:13;;;;;;;12.23;3.30;;;;;;;27.73;56.40;99883.03;4995179;28;20118;-77
2022/06/21 10:04:57;;;;;;;41.20;5.22;;;;;;;27.86;56.20;99880.72;5012504;28;20419;-76
2022/06/21 10:07:52;;;;;;;14.18;3.33;;;;;;;27.93;54.21;99873.06;5012507;28;20029;-76
2022/06/21 10:10:36;;;;;;;14.00;3.42;;;;;;;27.85;53.85;99879.06;4965331;28;20077;-76
2022/06/21 10:13:04;;;;;;;9.60;3.05;;;;;;;27.99;53.64;99872.03;5012369;28;20109;-75
2022/06/21 10:15:43;;;;;;;10.55;3.22;;;;;;;28.20;53.24;99867.63;5012247;28;20036;-75
2022/06/21 10:18:47;;;;;;;7.35;2.55;;;;;;;28.30;53.46;99865.00;5012184;28;20037;-76
2022/06/21 10:21:38;;;;;;;11.57;2.60;;;;;;;28.34;52.34;99860.63;4994978;28;20060;-78
2022/06/21 10:24:32;;;;;;;12.40;2.35;;;;;;;28.41;52.19;99868.69;4994707;28;20021;-77
2022/06/21 10:27:24;;;;;;;6.68;2.58;;;;;;;28.35;52.48;99867.81;4997337;28;20030;-78
2022/06/21 10:30:05;;;;;;;4.00;2.38;;;;;;;28.24;52.43;99870.72;4992558;28;20026;-79
2022/06/21 10:32:56;;;;;;;11.93;3.20;;;;;;;28.24;53.04;99856.91;4992675;28;20027;-78
2022/06/21 10:35:35;;;;;;;19.60;3.85;;;;;;;28.36;52.78;99857.59;4991529;28;20519;-79
2022/06/21 10:38:24;;;;;;;4.97;2.20;;;;;;;28.20;52.56;99848.28;4992627;28;20068;-76
2022/06/21 10:40:58;;;;;;;25.25;3.90;;;;;;;28.31;52.39;99852.00;4992675;28;20030;-76
2022/06/21 10:43:35;;;;;;;4.43;3.05;;;;;;;28.39;52.71;99851.53;4992721;28;20026;-76
2022/06/21 10:46:13;;;;;;;3.08;2.55;;;;;;;28.56;51.90;99842.03;4992439;28;20118;-76
2022/06/21 10:48:59;;;;;;;10.70;3.03;;;;;;;28.74;52.32;99832.56;4992485;28;20061;-76
2022/06/21 10:51:37;;;;;;;15.52;3.47;;;;;;;28.89;52.48;99829.94;4991168;28;20027;-75
2022/06/21 10:54:09;;;;;;;11.13;2.53;;;;;;;28.94;52.27;99826.38;4992489;28;20030;-76
2022/06/21 10:57:12;;;;;;;14.50;3.90;;;;;;;29.14;52.49;99824.59;4992547;28;20037;-77
2022/06/21 11:02:59;;;;;;;3.88;2.53;;;;;;;29.38;48.82;99821.47;4992028;28;20172;-78
2022/06/21 11:05:45;;;;;;;5.10;2.97;;;;;;;29.46;49.66;99819.03;4991989;28;20026;-76
2022/06/21 11:08:27;;;;;;;8.50;3.25;;;;;;;29.61;49.89;99819.13;4991978;28;20030;-76
2022/06/21 11:11:05;;;;;;;9.90;3.42;;;;;;;29.76;49.02;99820.28;4992089;28;20041;-78
2022/06/21 11:13:40;;;;;;;6.93;2.80;;;;;;;29.82;48.07;99814.53;4991837;28;20045;-78
2022/06/21 11:16:13;;;;;;;10.00;3.58;;;;;;;29.95;47.67;99802.97;4992127;28;20034;-76
2022/06/21 11:19:00;;;;;;;6.90;3.05;;;;;;;30.09;47.57;99806.88;4992009;28;20030;-75
2022/06/21 11:21:43;;;;;;;14.32;3.20;;;;;;;30.19;47.02;99801.38;4991805;28;20037;-75
2022/06/21 11:24:24;;;;;;;17.83;4.32;;;;;;;30.34;46.39;99796.97;4991825;28;20038;-75
2022/06/21 11:27:15;;;;;;;10.63;3.03;;;;;;;30.37;45.11;99793.63;4991832;28;20107;-76
2022/06/21 11:30:17;;;;;;;6.30;2.60;;;;;;;30.54;45.63;99789.56;4991942;28;20428;-74
2022/06/21 11:33:01;;;;;;;11.70;3.10;;;;;;;30.63;44.60;99789.84;4991664;28;20288;-74
2022/06/21 11:35:52;;;;;;;4.68;2.95;;;;;;;30.79;44.43;99793.47;4991727;28;20065;-74
2022/06/21 11:38:46;;;;;;;12.77;4.38;;;;;;;30.84;43.91;99785.13;4991378;28;20121;-76
2022/06/21 11:44:30;;;;;;;13.02;4.32;;;;;;;30.93;44.86;99773.19;4991356;28;20038;-74
2022/06/21 11:47:01;;;;;;;7.47;3.20;;;;;;;30.95;45.27;99765.41;4991518;28;20027;-74
2022/06/21 11:49:53;;;;;;;9.38;3.47;;;;;;;30.99;46.10;99752.66;4991590;28;20037;-74
2022/06/21 11:52:33;;;;;;;7.68;3.28;;;;;;;30.95;47.37;99759.88;4971748;28;20042;-74
2022/06/21 11:55:12;;;;;;;12.40;4.00;;;;;;;31.07;48.14;99757.63;4991627;28;20034;-74
2022/06/21 11:58:00;;;;;;;5.82;3.60;;;;;;;31.12;48.58;99754.84;4991465;28;20034;-74
2022/06/21 12:00:35;;;;;;;25.55;8.70;;;;;;;31.02;50.19;99742.91;4991296;28;20122;-75
2022/06/21 12:03:03;;;;;;;14.00;4.10;;;;;;;31.16;50.43;99744.84;4991442;28;20169;-74
2022/06/21 12:05:37;;;;;;;11.13;4.20;;;;;;;31.29;50.27;99735.91;4991351;28;20030;-74
2022/06/21 12:08:09;;;;;;;15.90;4.57;;;;;;;31.32;50.20;99730.91;4991340;28;20042;-74
2022/06/21 12:10:51;;;;;;;9.50;4.40;;;;;;;31.46;49.86;99721.69;4992264;28;20423;-74
2022/06/21 12:13:33;;;;;;;18.92;4.93;;;;;;;31.53;49.98;99735.34;4995043;28;20037;-74
2022/06/21 12:16:16;;;;;;;17.17;4.88;;;;;;;31.36;49.71;99732.00;4994918;28;20045;-74
2022/06/21 12:18:55;;;;;;;8.15;4.03;;;;;;;31.50;49.94;99724.75;4995276;28;20030;-74
2022/06/21 12:21:26;;;;;;;9.90;4.47;;;;;;;31.49;50.42;99731.44;4995237;28;20027;-75
2022/06/21 12:24:03;;;;;;;11.90;3.97;;;;;;;31.53;50.40;99721.44;4994534;28;20032;-77
2022/06/21 12:26:31;;;;;;;13.13;4.85;;;;;;;31.54;51.00;99714.75;4994866;28;20482;-76
2022/06/21 12:28:58;;;;;;;16.88;4.45;;;;;;;31.53;51.32;99711.13;4995175;28;20035;-77
2022/06/21 12:31:33;;;;;;;9.80;4.55;;;;;;;31.54;51.45;99707.25;4995023;28;20022;-76
2022/06/21 12:34:13;;;;;;;21.65;4.70;;;;;;;31.28;52.52;99703.66;4994661;28;20139;-76
2022/06/21 12:37:02;;;;;;;20.10;4.20;;;;;;;31.43;52.46;99704.75;4994980;28;20030;-78
2022/06/21 12:39:47;;;;;;;18.00;4.43;;;;;;;31.60;51.40;99694.13;4994871;28;20085;-77